sensor_id;sensor_type;location;lat;lon;timestamp;temperature;humidity
16253;DHT22;8234;41.480;2.306;2022-10-26T00:01:09;18.50;99.90
16253;DHT22;8234;41.480;2.306;2022-10-26T00:11:14;18.50;99.90
16253;DHT22;8234;41.480;2.306;2022-10-26T00:21:19;18.70;99.90
16253;DHT22;8234;41.480;2.306;2022-10-26T00:31:23;18.50;99.90
16253;DHT22;8234;41.480;2.306;2022-10-26T00:41:32;18.80;99.90
16253;DHT22;8234;41.480;2.306;2022-10-26T00:51:39;19.10;99.90
16253;DHT22;8234;41.480;2.306;2022-10-26T01:01:46;19.10;99.90
16253;DHT22;8234;41.480;2.306;2022-10-26T01:11:51;18.90;99.90
16253;DHT22;8234;41.480;2.306;2022-10-26T01:21:59;18.70;99.90
16253;DHT22;8234;41.480;2.306;2022-10-26T01:32:08;18.80;99.90
16253;DHT22;8234;41.480;2.306;2022-10-26T01:42:15;18.70;99.90
16253;DHT22;8234;41.480;2.306;2022-10-26T01:52:22;18.50;99.90
16253;DHT22;8234;41.480;2.306;2022-10-26T02:02:53;18.20;99.90
16253;DHT22;8234;41.480;2.306;2022-10-26T02:13:06;18.00;99.90
16253;DHT22;8234;41.480;2.306;2022-10-26T02:23:14;17.90;99.90
16253;DHT22;8234;41.480;2.306;2022-10-26T02:33:20;17.90;99.90
16253;DHT22;8234;41.480;2.306;2022-10-26T02:43:25;17.80;99.90
16253;DHT22;8234;41.480;2.306;2022-10-26T02:53:33;17.60;99.90
16253;DHT22;8234;41.480;2.306;2022-10-26T03:03:38;17.60;99.90
16253;DHT22;8234;41.480;2.306;2022-10-26T03:13:44;17.70;99.90
16253;DHT22;8234;41.480;2.306;2022-10-26T03:23:47;17.70;99.90
16253;DHT22;8234;41.480;2.306;2022-10-26T03:33:53;17.50;99.90
16253;DHT22;8234;41.480;2.306;2022-10-26T03:43:57;17.60;99.90
16253;DHT22;8234;41.480;2.306;2022-10-26T03:54:03;17.40;99.90
16253;DHT22;8234;41.480;2.306;2022-10-26T04:04:07;17.30;99.90
16253;DHT22;8234;41.480;2.306;2022-10-26T04:14:12;17.20;99.90
16253;DHT22;8234;41.480;2.306;2022-10-26T04:24:16;17.30;99.90
16253;DHT22;8234;41.480;2.306;2022-10-26T04:34:21;17.40;99.90
16253;DHT22;8234;41.480;2.306;2022-10-26T04:44:25;17.40;99.90
16253;DHT22;8234;41.480;2.306;2022-10-26T04:54:30;17.60;99.90
16253;DHT22;8234;41.480;2.306;2022-10-26T05:04:34;17.60;99.90
16253;DHT22;8234;41.480;2.306;2022-10-26T05:14:39;17.80;99.90
16253;DHT22;8234;41.480;2.306;2022-10-26T05:24:43;17.90;99.90
16253;DHT22;8234;41.480;2.306;2022-10-26T05:34:48;18.00;99.90
16253;DHT22;8234;41.480;2.306;2022-10-26T05:44:53;18.10;99.90
16253;DHT22;8234;41.480;2.306;2022-10-26T05:54:58;18.10;99.90
16253;DHT22;8234;41.480;2.306;2022-10-26T06:05:03;18.30;99.90
16253;DHT22;8234;41.480;2.306;2022-10-26T06:15:12;18.20;99.90
16253;DHT22;8234;41.480;2.306;2022-10-26T06:25:25;18.10;99.90
16253;DHT22;8234;41.480;2.306;2022-10-26T06:35:36;18.20;99.90
16253;DHT22;8234;41.480;2.306;2022-10-26T06:45:43;18.40;99.90
16253;DHT22;8234;41.480;2.306;2022-10-26T06:55:50;19.00;99.90
16253;DHT22;8234;41.480;2.306;2022-10-26T07:05:54;19.40;99.90
16253;DHT22;8234;41.480;2.306;2022-10-26T07:16:00;19.50;99.90
16253;DHT22;8234;41.480;2.306;2022-10-26T07:26:04;19.60;99.90
16253;DHT22;8234;41.480;2.306;2022-10-26T07:36:10;19.80;99.90
16253;DHT22;8234;41.480;2.306;2022-10-26T07:46:14;20.10;99.90
16253;DHT22;8234;41.480;2.306;2022-10-26T07:56:19;20.30;99.90
16253;DHT22;8234;41.480;2.306;2022-10-26T08:06:23;20.80;99.90
16253;DHT22;8234;41.480;2.306;2022-10-26T08:16:29;21.30;99.90
16253;DHT22;8234;41.480;2.306;2022-10-26T08:26:33;21.80;99.90
16253;DHT22;8234;41.480;2.306;2022-10-26T08:36:38;22.50;99.90
16253;DHT22;8234;41.480;2.306;2022-10-26T08:46:45;22.60;99.90
16253;DHT22;8234;41.480;2.306;2022-10-26T08:56:55;22.60;99.90
16253;DHT22;8234;41.480;2.306;2022-10-26T09:07:07;23.00;99.90
16253;DHT22;8234;41.480;2.306;2022-10-26T09:17:25;23.60;99.90
16253;DHT22;8234;41.480;2.306;2022-10-26T09:27:36;23.50;99.90
16253;DHT22;8234;41.480;2.306;2022-10-26T09:37:47;23.60;99.90
16253;DHT22;8234;41.480;2.306;2022-10-26T09:47:55;23.80;99.90
16253;DHT22;8234;41.480;2.306;2022-10-26T09:58:12;23.80;99.90
16253;DHT22;8234;41.480;2.306;2022-10-26T10:08:19;23.90;99.90
16253;DHT22;8234;41.480;2.306;2022-10-26T10:18:24;24.40;99.90
16253;DHT22;8234;41.480;2.306;2022-10-26T10:28:29;24.90;99.90
16253;DHT22;8234;41.480;2.306;2022-10-26T10:38:38;25.20;99.90
16253;DHT22;8234;41.480;2.306;2022-10-26T10:48:46;25.70;99.90
16253;DHT22;8234;41.480;2.306;2022-10-26T10:59:02;25.80;99.90
16253;DHT22;8234;41.480;2.306;2022-10-26T11:09:10;26.00;99.90
16253;DHT22;8234;41.480;2.306;2022-10-26T11:19:19;26.30;99.90
16253;DHT22;8234;41.480;2.306;2022-10-26T11:29:32;26.60;99.90
16253;DHT22;8234;41.480;2.306;2022-10-26T11:39:44;26.90;99.90
16253;DHT22;8234;41.480;2.306;2022-10-26T11:49:56;26.50;99.90
16253;DHT22;8234;41.480;2.306;2022-10-26T12:00:05;27.00;99.90
16253;DHT22;8234;41.480;2.306;2022-10-26T12:10:19;26.10;99.90
16253;DHT22;8234;41.480;2.306;2022-10-26T12:20:51;27.10;99.90
16253;DHT22;8234;41.480;2.306;2022-10-26T12:41:55;27.90;99.90
16253;DHT22;8234;41.480;2.306;2022-10-26T12:51:59;27.80;99.90
16253;DHT22;8234;41.480;2.306;2022-10-26T13:02:37;26.80;99.90
16253;DHT22;8234;41.480;2.306;2022-10-26T13:12:46;26.50;99.90
16253;DHT22;8234;41.480;2.306;2022-10-26T13:22:53;26.50;99.90
16253;DHT22;8234;41.480;2.306;2022-10-26T13:32:57;27.30;99.90
16253;DHT22;8234;41.480;2.306;2022-10-26T13:43:06;28.10;99.90
16253;DHT22;8234;41.480;2.306;2022-10-26T13:53:18;28.40;99.90
16253;DHT22;8234;41.480;2.306;2022-10-26T14:03:25;28.10;99.90
16253;DHT22;8234;41.480;2.306;2022-10-26T14:13:29;28.70;99.90
16253;DHT22;8234;41.480;2.306;2022-10-26T14:23:44;28.60;99.90
16253;DHT22;8234;41.480;2.306;2022-10-26T14:33:48;28.10;99.90
16253;DHT22;8234;41.480;2.306;2022-10-26T14:43:55;28.10;99.90
16253;DHT22;8234;41.480;2.306;2022-10-26T14:54:00;28.00;99.90
16253;DHT22;8234;41.480;2.306;2022-10-26T15:04:21;28.00;99.90
16253;DHT22;8234;41.480;2.306;2022-10-26T15:14:29;26.70;99.90
16253;DHT22;8234;41.480;2.306;2022-10-26T15:24:36;25.80;99.90
16253;DHT22;8234;41.480;2.306;2022-10-26T15:34:41;25.70;99.90
16253;DHT22;8234;41.480;2.306;2022-10-26T15:44:46;25.40;99.90
16253;DHT22;8234;41.480;2.306;2022-10-26T15:54:52;25.50;99.90
16253;DHT22;8234;41.480;2.306;2022-10-26T16:04:58;25.30;99.90
16253;DHT22;8234;41.480;2.306;2022-10-26T16:15:01;24.90;99.90
16253;DHT22;8234;41.480;2.306;2022-10-26T16:25:10;24.40;99.90
16253;DHT22;8234;41.480;2.306;2022-10-26T16:35:14;24.00;99.90
16253;DHT22;8234;41.480;2.306;2022-10-26T16:45:20;23.80;99.90
16253;DHT22;8234;41.480;2.306;2022-10-26T16:55:23;23.60;99.90
16253;DHT22;8234;41.480;2.306;2022-10-26T17:05:29;23.40;99.90
16253;DHT22;8234;41.480;2.306;2022-10-26T17:15:33;23.00;99.90
16253;DHT22;8234;41.480;2.306;2022-10-26T17:25:38;23.00;99.90
16253;DHT22;8234;41.480;2.306;2022-10-26T17:35:42;22.70;99.90
16253;DHT22;8234;41.480;2.306;2022-10-26T17:45:48;22.70;99.90
16253;DHT22;8234;41.480;2.306;2022-10-26T17:55:59;22.20;99.90
16253;DHT22;8234;41.480;2.306;2022-10-26T18:06:05;22.00;99.90
16253;DHT22;8234;41.480;2.306;2022-10-26T18:16:12;21.90;99.90
16253;DHT22;8234;41.480;2.306;2022-10-26T18:26:19;21.90;99.90
16253;DHT22;8234;41.480;2.306;2022-10-26T18:36:24;21.50;99.90
16253;DHT22;8234;41.480;2.306;2022-10-26T18:46:30;21.50;99.90
16253;DHT22;8234;41.480;2.306;2022-10-26T18:56:35;21.40;99.90
16253;DHT22;8234;41.480;2.306;2022-10-26T19:06:43;21.60;99.90
16253;DHT22;8234;41.480;2.306;2022-10-26T19:16:49;21.40;99.90
16253;DHT22;8234;41.480;2.306;2022-10-26T19:26:55;21.20;99.90
16253;DHT22;8234;41.480;2.306;2022-10-26T19:36:59;21.10;99.90
16253;DHT22;8234;41.480;2.306;2022-10-26T19:47:04;21.00;99.90
16253;DHT22;8234;41.480;2.306;2022-10-26T19:57:08;20.80;99.90
16253;DHT22;8234;41.480;2.306;2022-10-26T20:07:14;20.60;99.90
16253;DHT22;8234;41.480;2.306;2022-10-26T20:17:18;20.30;99.90
16253;DHT22;8234;41.480;2.306;2022-10-26T20:27:28;19.90;99.90
16253;DHT22;8234;41.480;2.306;2022-10-26T20:37:32;19.60;99.90
16253;DHT22;8234;41.480;2.306;2022-10-26T20:47:38;19.40;99.90
16253;DHT22;8234;41.480;2.306;2022-10-26T20:57:51;19.20;99.90
16253;DHT22;8234;41.480;2.306;2022-10-26T21:08:00;19.00;99.90
16253;DHT22;8234;41.480;2.306;2022-10-26T21:18:03;19.00;99.90
16253;DHT22;8234;41.480;2.306;2022-10-26T21:28:09;19.00;99.90
16253;DHT22;8234;41.480;2.306;2022-10-26T21:38:12;18.80;99.90
16253;DHT22;8234;41.480;2.306;2022-10-26T21:48:17;18.80;99.90
16253;DHT22;8234;41.480;2.306;2022-10-26T21:58:21;18.90;99.90
16253;DHT22;8234;41.480;2.306;2022-10-26T22:08:27;18.80;99.90
16253;DHT22;8234;41.480;2.306;2022-10-26T22:18:33;18.50;99.90
16253;DHT22;8234;41.480;2.306;2022-10-26T22:28:40;18.70;99.90
16253;DHT22;8234;41.480;2.306;2022-10-26T22:38:45;18.80;99.90
16253;DHT22;8234;41.480;2.306;2022-10-26T22:48:53;19.10;99.90
16253;DHT22;8234;41.480;2.306;2022-10-26T22:58:57;18.90;99.90
16253;DHT22;8234;41.480;2.306;2022-10-26T23:09:04;19.10;99.90
16253;DHT22;8234;41.480;2.306;2022-10-26T23:19:08;19.30;99.90
16253;DHT22;8234;41.480;2.306;2022-10-26T23:29:13;19.10;99.90
16253;DHT22;8234;41.480;2.306;2022-10-26T23:39:17;18.80;99.90
16253;DHT22;8234;41.480;2.306;2022-10-26T23:49:22;18.70;99.90
16253;DHT22;8234;41.480;2.306;2022-10-26T23:59:26;18.30;99.90
